sensor_id;sensor_type;location;lat;lon;timestamp;temperature;humidity
4002;DHT22;2015;48.670;9.060;2022-12-22T00:00:12;8.50;99.90
4002;DHT22;2015;48.670;9.060;2022-12-22T00:03:11;8.50;99.90
4002;DHT22;2015;48.670;9.060;2022-12-22T00:06:02;8.50;99.90
4002;DHT22;2015;48.670;9.060;2022-12-22T00:08:52;8.50;99.90
4002;DHT22;2015;48.670;9.060;2022-12-22T00:11:43;8.50;99.90
4002;DHT22;2015;48.670;9.060;2022-12-22T00:14:34;8.40;99.90
4002;DHT22;2015;48.670;9.060;2022-12-22T00:17:26;8.40;99.90
4002;DHT22;2015;48.670;9.060;2022-12-22T00:20:18;8.40;99.90
4002;DHT22;2015;48.670;9.060;2022-12-22T00:23:09;8.40;99.90
4002;DHT22;2015;48.670;9.060;2022-12-22T00:26:00;8.40;99.90
4002;DHT22;2015;48.670;9.060;2022-12-22T00:28:50;8.30;99.90
4002;DHT22;2015;48.670;9.060;2022-12-22T00:31:41;8.30;99.90
4002;DHT22;2015;48.670;9.060;2022-12-22T00:34:38;8.30;99.90
4002;DHT22;2015;48.670;9.060;2022-12-22T00:37:32;8.20;99.90
4002;DHT22;2015;48.670;9.060;2022-12-22T00:40:27;8.30;99.90
4002;DHT22;2015;48.670;9.060;2022-12-22T00:43:18;8.20;99.90
4002;DHT22;2015;48.670;9.060;2022-12-22T00:46:10;8.20;99.90
4002;DHT22;2015;48.670;9.060;2022-12-22T00:49:01;8.10;99.90
4002;DHT22;2015;48.670;9.060;2022-12-22T00:51:52;8.10;99.90
4002;DHT22;2015;48.670;9.060;2022-12-22T00:54:42;8.00;99.90
4002;DHT22;2015;48.670;9.060;2022-12-22T00:57:32;8.00;99.90
4002;DHT22;2015;48.670;9.060;2022-12-22T01:00:23;8.00;99.90
4002;DHT22;2015;48.670;9.060;2022-12-22T01:03:13;8.00;99.90
4002;DHT22;2015;48.670;9.060;2022-12-22T01:06:07;7.90;99.90
4002;DHT22;2015;48.670;9.060;2022-12-22T01:08:58;7.90;99.90
4002;DHT22;2015;48.670;9.060;2022-12-22T01:11:49;7.90;99.90
4002;DHT22;2015;48.670;9.060;2022-12-22T01:14:39;7.90;99.90
4002;DHT22;2015;48.670;9.060;2022-12-22T01:17:30;7.90;99.90
4002;DHT22;2015;48.670;9.060;2022-12-22T01:20:20;7.90;99.90
4002;DHT22;2015;48.670;9.060;2022-12-22T01:23:11;7.90;99.90
4002;DHT22;2015;48.670;9.060;2022-12-22T01:26:01;7.90;99.90
4002;DHT22;2015;48.670;9.060;2022-12-22T01:28:52;7.90;99.90
4002;DHT22;2015;48.670;9.060;2022-12-22T01:31:42;8.00;99.90
4002;DHT22;2015;48.670;9.060;2022-12-22T01:34:34;8.00;99.90
4002;DHT22;2015;48.670;9.060;2022-12-22T01:37:24;8.00;99.90
4002;DHT22;2015;48.670;9.060;2022-12-22T01:40:20;8.10;99.90
4002;DHT22;2015;48.670;9.060;2022-12-22T01:43:26;8.10;99.90
4002;DHT22;2015;48.670;9.060;2022-12-22T01:46:39;8.10;99.90
4002;DHT22;2015;48.670;9.060;2022-12-22T01:49:34;8.10;99.90
4002;DHT22;2015;48.670;9.060;2022-12-22T01:52:30;8.10;99.90
4002;DHT22;2015;48.670;9.060;2022-12-22T01:55:23;8.10;99.90
4002;DHT22;2015;48.670;9.060;2022-12-22T01:58:26;8.10;99.90
4002;DHT22;2015;48.670;9.060;2022-12-22T02:01:16;8.10;99.90
4002;DHT22;2015;48.670;9.060;2022-12-22T02:04:07;8.20;99.90
4002;DHT22;2015;48.670;9.060;2022-12-22T02:07:48;8.20;99.90
4002;DHT22;2015;48.670;9.060;2022-12-22T02:13:32;8.00;99.90
4002;DHT22;2015;48.670;9.060;2022-12-22T02:19:43;8.10;99.90
4002;DHT22;2015;48.670;9.060;2022-12-22T02:22:51;8.10;99.90
4002;DHT22;2015;48.670;9.060;2022-12-22T02:25:49;8.20;99.90
4002;DHT22;2015;48.670;9.060;2022-12-22T02:28:43;8.20;99.90
4002;DHT22;2015;48.670;9.060;2022-12-22T02:31:36;8.30;99.90
4002;DHT22;2015;48.670;9.060;2022-12-22T02:34:27;8.40;99.90
4002;DHT22;2015;48.670;9.060;2022-12-22T02:49:41;8.50;99.90
4002;DHT22;2015;48.670;9.060;2022-12-22T02:52:35;8.50;99.90
4002;DHT22;2015;48.670;9.060;2022-12-22T02:55:26;8.50;99.90
4002;DHT22;2015;48.670;9.060;2022-12-22T02:58:17;8.50;99.90
4002;DHT22;2015;48.670;9.060;2022-12-22T03:01:09;8.40;99.90
4002;DHT22;2015;48.670;9.060;2022-12-22T03:04:00;8.40;99.90
4002;DHT22;2015;48.670;9.060;2022-12-22T03:06:50;8.30;99.90
4002;DHT22;2015;48.670;9.060;2022-12-22T03:09:40;8.30;99.90
4002;DHT22;2015;48.670;9.060;2022-12-22T03:12:31;8.30;99.90
4002;DHT22;2015;48.670;9.060;2022-12-22T03:15:21;8.40;99.90
4002;DHT22;2015;48.670;9.060;2022-12-22T03:18:12;8.40;99.90
4002;DHT22;2015;48.670;9.060;2022-12-22T03:21:02;8.40;99.90
4002;DHT22;2015;48.670;9.060;2022-12-22T03:23:53;8.50;99.90
4002;DHT22;2015;48.670;9.060;2022-12-22T03:26:43;8.50;99.90
4002;DHT22;2015;48.670;9.060;2022-12-22T03:29:15;8.50;99.90
4002;DHT22;2015;48.670;9.060;2022-12-22T03:31:47;8.60;99.90
4002;DHT22;2015;48.670;9.060;2022-12-22T03:34:19;8.70;99.90
4002;DHT22;2015;48.670;9.060;2022-12-22T03:36:51;8.70;99.90
4002;DHT22;2015;48.670;9.060;2022-12-22T03:39:22;8.60;99.90
4002;DHT22;2015;48.670;9.060;2022-12-22T03:41:54;8.60;99.90
4002;DHT22;2015;48.670;9.060;2022-12-22T03:45:02;8.70;99.90
4002;DHT22;2015;48.670;9.060;2022-12-22T03:47:52;8.80;99.90
4002;DHT22;2015;48.670;9.060;2022-12-22T03:50:24;8.80;99.90
4002;DHT22;2015;48.670;9.060;2022-12-22T03:52:56;8.80;99.90
4002;DHT22;2015;48.670;9.060;2022-12-22T03:55:27;8.70;99.90
4002;DHT22;2015;48.670;9.060;2022-12-22T03:57:59;8.70;99.90
4002;DHT22;2015;48.670;9.060;2022-12-22T04:00:31;8.70;99.90
4002;DHT22;2015;48.670;9.060;2022-12-22T04:03:02;8.70;99.90
4002;DHT22;2015;48.670;9.060;2022-12-22T04:05:34;8.80;99.90
4002;DHT22;2015;48.670;9.060;2022-12-22T04:08:06;8.80;99.90
4002;DHT22;2015;48.670;9.060;2022-12-22T04:10:38;8.80;99.90
4002;DHT22;2015;48.670;9.060;2022-12-22T04:13:28;8.80;99.90
4002;DHT22;2015;48.670;9.060;2022-12-22T04:16:00;8.90;99.90
4002;DHT22;2015;48.670;9.060;2022-12-22T04:18:32;8.90;99.90
4002;DHT22;2015;48.670;9.060;2022-12-22T04:21:04;8.90;99.90
4002;DHT22;2015;48.670;9.060;2022-12-22T04:23:36;8.90;99.90
4002;DHT22;2015;48.670;9.060;2022-12-22T04:26:07;8.90;99.90
4002;DHT22;2015;48.670;9.060;2022-12-22T04:28:39;8.90;99.90
4002;DHT22;2015;48.670;9.060;2022-12-22T04:31:11;8.90;99.90
4002;DHT22;2015;48.670;9.060;2022-12-22T04:33:43;9.00;99.90
4002;DHT22;2015;48.670;9.060;2022-12-22T04:36:16;9.00;99.90
4002;DHT22;2015;48.670;9.060;2022-12-22T04:38:47;9.00;99.90
4002;DHT22;2015;48.670;9.060;2022-12-22T04:41:19;9.00;99.90
4002;DHT22;2015;48.670;9.060;2022-12-22T04:43:51;9.00;99.90
4002;DHT22;2015;48.670;9.060;2022-12-22T04:46:23;9.00;99.90
4002;DHT22;2015;48.670;9.060;2022-12-22T04:48:55;9.00;99.90
4002;DHT22;2015;48.670;9.060;2022-12-22T04:51:31;9.00;99.90
4002;DHT22;2015;48.670;9.060;2022-12-22T04:54:02;9.00;99.90
4002;DHT22;2015;48.670;9.060;2022-12-22T04:56:34;8.90;99.90
4002;DHT22;2015;48.670;9.060;2022-12-22T04:59:06;8.90;99.90
4002;DHT22;2015;48.670;9.060;2022-12-22T05:01:38;8.90;99.90
4002;DHT22;2015;48.670;9.060;2022-12-22T05:04:10;8.90;99.90
4002;DHT22;2015;48.670;9.060;2022-12-22T05:06:41;8.90;99.90
4002;DHT22;2015;48.670;9.060;2022-12-22T05:09:13;9.00;99.90
4002;DHT22;2015;48.670;9.060;2022-12-22T05:11:45;9.00;99.90
4002;DHT22;2015;48.670;9.060;2022-12-22T05:14:17;8.90;99.90
4002;DHT22;2015;48.670;9.060;2022-12-22T05:16:48;9.00;99.90
4002;DHT22;2015;48.670;9.060;2022-12-22T05:19:20;8.90;99.90
4002;DHT22;2015;48.670;9.060;2022-12-22T05:21:59;8.90;99.90
4002;DHT22;2015;48.670;9.060;2022-12-22T05:24:31;9.00;99.90
4002;DHT22;2015;48.670;9.060;2022-12-22T05:27:03;9.00;99.90
4002;DHT22;2015;48.670;9.060;2022-12-22T05:29:34;9.00;99.90
4002;DHT22;2015;48.670;9.060;2022-12-22T05:32:06;9.00;99.90
4002;DHT22;2015;48.670;9.060;2022-12-22T05:34:38;8.90;99.90
4002;DHT22;2015;48.670;9.060;2022-12-22T05:37:10;8.90;99.90
4002;DHT22;2015;48.670;9.060;2022-12-22T05:39:41;8.90;99.90
4002;DHT22;2015;48.670;9.060;2022-12-22T05:42:13;8.90;99.90
4002;DHT22;2015;48.670;9.060;2022-12-22T05:44:45;8.90;99.90
4002;DHT22;2015;48.670;9.060;2022-12-22T05:47:17;8.90;99.90
4002;DHT22;2015;48.670;9.060;2022-12-22T05:49:48;8.90;99.90
4002;DHT22;2015;48.670;9.060;2022-12-22T05:52:20;8.90;99.90
4002;DHT22;2015;48.670;9.060;2022-12-22T05:54:52;8.90;99.90
4002;DHT22;2015;48.670;9.060;2022-12-22T05:57:24;8.80;99.90
4002;DHT22;2015;48.670;9.060;2022-12-22T05:59:56;8.80;99.90
4002;DHT22;2015;48.670;9.060;2022-12-22T06:02:28;8.70;99.90
4002;DHT22;2015;48.670;9.060;2022-12-22T06:05:00;8.70;99.90
4002;DHT22;2015;48.670;9.060;2022-12-22T06:07:32;8.70;99.90
4002;DHT22;2015;48.670;9.060;2022-12-22T06:10:05;8.70;99.90
4002;DHT22;2015;48.670;9.060;2022-12-22T06:12:43;8.70;99.90
4002;DHT22;2015;48.670;9.060;2022-12-22T06:15:15;8.60;99.90
4002;DHT22;2015;48.670;9.060;2022-12-22T06:17:46;8.70;99.90
4002;DHT22;2015;48.670;9.060;2022-12-22T06:20:18;8.70;99.90
4002;DHT22;2015;48.670;9.060;2022-12-22T06:22:50;8.80;99.90
4002;DHT22;2015;48.670;9.060;2022-12-22T06:25:22;8.80;99.90
4002;DHT22;2015;48.670;9.060;2022-12-22T06:27:53;8.90;99.90
4002;DHT22;2015;48.670;9.060;2022-12-22T06:30:25;8.90;99.90
4002;DHT22;2015;48.670;9.060;2022-12-22T06:33:04;8.90;99.90
4002;DHT22;2015;48.670;9.060;2022-12-22T06:35:36;9.00;99.90
4002;DHT22;2015;48.670;9.060;2022-12-22T06:38:08;9.10;99.90
4002;DHT22;2015;48.670;9.060;2022-12-22T06:40:39;9.10;99.90
4002;DHT22;2015;48.670;9.060;2022-12-22T06:43:11;9.20;99.90
4002;DHT22;2015;48.670;9.060;2022-12-22T06:45:43;9.20;99.90
4002;DHT22;2015;48.670;9.060;2022-12-22T06:48:15;9.30;99.90
4002;DHT22;2015;48.670;9.060;2022-12-22T06:50:47;9.30;99.90
4002;DHT22;2015;48.670;9.060;2022-12-22T06:53:19;9.30;99.90
4002;DHT22;2015;48.670;9.060;2022-12-22T06:55:51;9.30;99.90
4002;DHT22;2015;48.670;9.060;2022-12-22T06:58:23;9.40;99.90
4002;DHT22;2015;48.670;9.060;2022-12-22T07:00:55;9.40;99.90
4002;DHT22;2015;48.670;9.060;2022-12-22T07:03:27;9.40;99.90
4002;DHT22;2015;48.670;9.060;2022-12-22T07:05:59;9.50;99.90
4002;DHT22;2015;48.670;9.060;2022-12-22T07:08:30;9.50;99.90
4002;DHT22;2015;48.670;9.060;2022-12-22T07:11:02;9.40;99.90
4002;DHT22;2015;48.670;9.060;2022-12-22T07:13:34;9.40;99.90
4002;DHT22;2015;48.670;9.060;2022-12-22T07:16:07;9.40;99.90
4002;DHT22;2015;48.670;9.060;2022-12-22T07:18:41;9.40;99.90
4002;DHT22;2015;48.670;9.060;2022-12-22T07:21:13;9.30;99.90
4002;DHT22;2015;48.670;9.060;2022-12-22T07:23:45;9.30;99.90
4002;DHT22;2015;48.670;9.060;2022-12-22T07:26:17;9.40;99.90
4002;DHT22;2015;48.670;9.060;2022-12-22T07:28:48;9.50;99.90
4002;DHT22;2015;48.670;9.060;2022-12-22T07:31:26;9.60;99.90
4002;DHT22;2015;48.670;9.060;2022-12-22T07:33:58;9.50;99.90
4002;DHT22;2015;48.670;9.060;2022-12-22T07:36:30;9.50;99.90
4002;DHT22;2015;48.670;9.060;2022-12-22T07:39:01;9.50;99.90
4002;DHT22;2015;48.670;9.060;2022-12-22T07:41:33;9.40;99.90
4002;DHT22;2015;48.670;9.060;2022-12-22T07:44:24;9.20;99.90
4002;DHT22;2015;48.670;9.060;2022-12-22T07:46:56;9.10;99.90
4002;DHT22;2015;48.670;9.060;2022-12-22T07:49:28;9.10;99.90
4002;DHT22;2015;48.670;9.060;2022-12-22T07:52:18;8.90;99.90
4002;DHT22;2015;48.670;9.060;2022-12-22T07:54:50;8.80;99.90
4002;DHT22;2015;48.670;9.060;2022-12-22T07:57:22;8.80;99.90
4002;DHT22;2015;48.670;9.060;2022-12-22T07:59:54;8.70;99.90
4002;DHT22;2015;48.670;9.060;2022-12-22T08:02:25;8.60;99.90
4002;DHT22;2015;48.670;9.060;2022-12-22T08:04:57;8.60;99.90
4002;DHT22;2015;48.670;9.060;2022-12-22T08:07:29;8.60;99.90
4002;DHT22;2015;48.670;9.060;2022-12-22T08:10:03;8.50;99.90
4002;DHT22;2015;48.670;9.060;2022-12-22T08:12:35;8.50;99.90
4002;DHT22;2015;48.670;9.060;2022-12-22T08:15:07;8.50;99.90
4002;DHT22;2015;48.670;9.060;2022-12-22T08:17:39;8.50;99.90
4002;DHT22;2015;48.670;9.060;2022-12-22T08:20:11;8.50;99.90
4002;DHT22;2015;48.670;9.060;2022-12-22T08:22:43;8.50;99.90
4002;DHT22;2015;48.670;9.060;2022-12-22T08:25:15;8.60;99.90
4002;DHT22;2015;48.670;9.060;2022-12-22T08:27:49;8.50;99.90
4002;DHT22;2015;48.670;9.060;2022-12-22T08:30:22;8.60;99.90
4002;DHT22;2015;48.670;9.060;2022-12-22T08:32:54;8.60;99.90
4002;DHT22;2015;48.670;9.060;2022-12-22T08:35:26;8.70;99.90
4002;DHT22;2015;48.670;9.060;2022-12-22T08:37:58;8.60;99.90
4002;DHT22;2015;48.670;9.060;2022-12-22T08:40:31;8.70;99.90
4002;DHT22;2015;48.670;9.060;2022-12-22T08:43:06;8.70;99.90
4002;DHT22;2015;48.670;9.060;2022-12-22T08:45:38;8.70;99.90
4002;DHT22;2015;48.670;9.060;2022-12-22T08:48:10;8.70;99.90
4002;DHT22;2015;48.670;9.060;2022-12-22T08:50:42;8.80;99.90
4002;DHT22;2015;48.670;9.060;2022-12-22T08:53:15;8.90;99.90
4002;DHT22;2015;48.670;9.060;2022-12-22T08:56:07;9.00;99.90
4002;DHT22;2015;48.670;9.060;2022-12-22T08:58:38;9.10;99.90
4002;DHT22;2015;48.670;9.060;2022-12-22T09:01:18;9.20;99.90
4002;DHT22;2015;48.670;9.060;2022-12-22T09:03:52;9.10;99.90
4002;DHT22;2015;48.670;9.060;2022-12-22T09:06:25;9.30;99.90
4002;DHT22;2015;48.670;9.060;2022-12-22T09:09:00;9.50;99.90
4002;DHT22;2015;48.670;9.060;2022-12-22T09:11:33;9.80;99.90
4002;DHT22;2015;48.670;9.060;2022-12-22T09:14:05;10.20;99.90
4002;DHT22;2015;48.670;9.060;2022-12-22T09:16:38;10.20;99.90
4002;DHT22;2015;48.670;9.060;2022-12-22T09:19:10;9.90;99.90
4002;DHT22;2015;48.670;9.060;2022-12-22T09:21:42;9.60;99.90
4002;DHT22;2015;48.670;9.060;2022-12-22T09:24:15;9.40;99.90
4002;DHT22;2015;48.670;9.060;2022-12-22T09:26:48;9.30;99.90
4002;DHT22;2015;48.670;9.060;2022-12-22T09:29:20;9.10;99.90
4002;DHT22;2015;48.670;9.060;2022-12-22T09:31:52;9.00;99.90
4002;DHT22;2015;48.670;9.060;2022-12-22T09:34:23;9.00;99.90
4002;DHT22;2015;48.670;9.060;2022-12-22T09:36:55;9.00;99.90
4002;DHT22;2015;48.670;9.060;2022-12-22T09:39:27;9.00;99.90
4002;DHT22;2015;48.670;9.060;2022-12-22T09:42:00;9.00;99.90
4002;DHT22;2015;48.670;9.060;2022-12-22T09:44:35;8.90;99.90
4002;DHT22;2015;48.670;9.060;2022-12-22T09:47:28;8.90;99.90
4002;DHT22;2015;48.670;9.060;2022-12-22T09:50:04;8.90;99.90
4002;DHT22;2015;48.670;9.060;2022-12-22T09:55:29;8.80;99.90
4002;DHT22;2015;48.670;9.060;2022-12-22T09:58:03;8.80;99.90
4002;DHT22;2015;48.670;9.060;2022-12-22T10:00:35;8.80;99.90
4002;DHT22;2015;48.670;9.060;2022-12-22T10:03:29;8.80;99.90
4002;DHT22;2015;48.670;9.060;2022-12-22T10:06:13;8.90;99.90
4002;DHT22;2015;48.670;9.060;2022-12-22T10:08:47;8.90;99.90
4002;DHT22;2015;48.670;9.060;2022-12-22T10:11:19;8.80;99.90
4002;DHT22;2015;48.670;9.060;2022-12-22T10:13:51;8.90;99.90
4002;DHT22;2015;48.670;9.060;2022-12-22T10:16:26;8.80;99.90
4002;DHT22;2015;48.670;9.060;2022-12-22T10:19:10;8.80;99.90
4002;DHT22;2015;48.670;9.060;2022-12-22T10:21:42;8.80;99.90
4002;DHT22;2015;48.670;9.060;2022-12-22T10:24:26;8.80;99.90
4002;DHT22;2015;48.670;9.060;2022-12-22T10:26:59;8.90;99.90
4002;DHT22;2015;48.670;9.060;2022-12-22T10:29:33;8.90;99.90
4002;DHT22;2015;48.670;9.060;2022-12-22T10:32:12;8.90;99.90
4002;DHT22;2015;48.670;9.060;2022-12-22T10:35:03;8.90;99.90
4002;DHT22;2015;48.670;9.060;2022-12-22T10:37:37;8.90;99.90
4002;DHT22;2015;48.670;9.060;2022-12-22T10:40:18;8.90;99.90
4002;DHT22;2015;48.670;9.060;2022-12-22T10:42:52;9.00;99.90
4002;DHT22;2015;48.670;9.060;2022-12-22T10:45:26;9.00;99.90
4002;DHT22;2015;48.670;9.060;2022-12-22T10:47:58;9.00;99.90
4002;DHT22;2015;48.670;9.060;2022-12-22T10:50:30;9.00;99.90
4002;DHT22;2015;48.670;9.060;2022-12-22T10:53:02;9.00;99.90
4002;DHT22;2015;48.670;9.060;2022-12-22T10:55:34;9.00;99.90
4002;DHT22;2015;48.670;9.060;2022-12-22T11:00:41;9.00;99.90
4002;DHT22;2015;48.670;9.060;2022-12-22T11:03:28;9.00;99.90
4002;DHT22;2015;48.670;9.060;2022-12-22T11:06:00;9.10;99.90
4002;DHT22;2015;48.670;9.060;2022-12-22T11:08:32;9.10;99.90
4002;DHT22;2015;48.670;9.060;2022-12-22T11:11:09;9.10;99.90
4002;DHT22;2015;48.670;9.060;2022-12-22T11:13:54;9.20;99.90
4002;DHT22;2015;48.670;9.060;2022-12-22T11:16:57;9.30;99.90
4002;DHT22;2015;48.670;9.060;2022-12-22T11:19:57;9.40;99.90
4002;DHT22;2015;48.670;9.060;2022-12-22T11:22:49;9.40;99.90
4002;DHT22;2015;48.670;9.060;2022-12-22T11:37:28;9.70;99.90
4002;DHT22;2015;48.670;9.060;2022-12-22T11:48:54;10.10;99.90
4002;DHT22;2015;48.670;9.060;2022-12-22T11:57:51;10.30;99.90
4002;DHT22;2015;48.670;9.060;2022-12-22T12:00:27;10.30;99.90
4002;DHT22;2015;48.670;9.060;2022-12-22T12:21:14;10.30;99.90
4002;DHT22;2015;48.670;9.060;2022-12-22T12:26:48;10.40;99.90
4002;DHT22;2015;48.670;9.060;2022-12-22T12:29:27;10.50;99.90
4002;DHT22;2015;48.670;9.060;2022-12-22T12:32:30;10.60;99.90
4002;DHT22;2015;48.670;9.060;2022-12-22T12:37:57;10.90;99.90
4002;DHT22;2015;48.670;9.060;2022-12-22T12:40:50;11.00;99.90
4002;DHT22;2015;48.670;9.060;2022-12-22T12:43:23;10.90;99.90
4002;DHT22;2015;48.670;9.060;2022-12-22T12:45:55;10.70;99.90
4002;DHT22;2015;48.670;9.060;2022-12-22T12:48:36;10.60;99.90
4002;DHT22;2015;48.670;9.060;2022-12-22T12:51:47;10.40;99.90
4002;DHT22;2015;48.670;9.060;2022-12-22T12:57:10;10.20;99.90
4002;DHT22;2015;48.670;9.060;2022-12-22T12:59:45;10.20;99.90
4002;DHT22;2015;48.670;9.060;2022-12-22T13:08:12;10.20;99.90
4002;DHT22;2015;48.670;9.060;2022-12-22T13:24:01;10.20;99.90
4002;DHT22;2015;48.670;9.060;2022-12-22T13:26:59;10.10;99.90
4002;DHT22;2015;48.670;9.060;2022-12-22T13:29:43;10.10;99.90
4002;DHT22;2015;48.670;9.060;2022-12-22T13:32:29;10.10;99.90
4002;DHT22;2015;48.670;9.060;2022-12-22T13:35:42;10.10;99.90
4002;DHT22;2015;48.670;9.060;2022-12-22T13:38:29;10.10;99.90
4002;DHT22;2015;48.670;9.060;2022-12-22T13:41:10;10.20;99.90
4002;DHT22;2015;48.670;9.060;2022-12-22T13:43:48;10.10;99.90
4002;DHT22;2015;48.670;9.060;2022-12-22T13:46:21;10.20;99.90
4002;DHT22;2015;48.670;9.060;2022-12-22T13:48:55;10.10;99.90
4002;DHT22;2015;48.670;9.060;2022-12-22T13:51:29;10.10;99.90
4002;DHT22;2015;48.670;9.060;2022-12-22T13:56:57;10.10;99.90
4002;DHT22;2015;48.670;9.060;2022-12-22T13:59:35;10.10;99.90
4002;DHT22;2015;48.670;9.060;2022-12-22T14:04:41;10.20;99.90
4002;DHT22;2015;48.670;9.060;2022-12-22T14:07:16;10.20;99.90
4002;DHT22;2015;48.670;9.060;2022-12-22T14:09:50;10.20;99.90
4002;DHT22;2015;48.670;9.060;2022-12-22T14:12:30;10.20;99.90
4002;DHT22;2015;48.670;9.060;2022-12-22T14:15:08;10.20;99.90
4002;DHT22;2015;48.670;9.060;2022-12-22T14:17:42;10.10;99.90
4002;DHT22;2015;48.670;9.060;2022-12-22T14:20:32;10.10;99.90
4002;DHT22;2015;48.670;9.060;2022-12-22T14:23:17;10.10;99.90
4002;DHT22;2015;48.670;9.060;2022-12-22T14:25:51;10.10;99.90
4002;DHT22;2015;48.670;9.060;2022-12-22T14:31:00;9.90;99.90
4002;DHT22;2015;48.670;9.060;2022-12-22T14:33:33;9.90;99.90
4002;DHT22;2015;48.670;9.060;2022-12-22T14:36:20;9.80;99.90
4002;DHT22;2015;48.670;9.060;2022-12-22T14:41:34;9.60;99.90
4002;DHT22;2015;48.670;9.060;2022-12-22T14:44:20;9.60;99.90
4002;DHT22;2015;48.670;9.060;2022-12-22T14:52:44;9.50;99.90
4002;DHT22;2015;48.670;9.060;2022-12-22T14:55:26;9.40;99.90
4002;DHT22;2015;48.670;9.060;2022-12-22T15:00:43;9.30;99.90
4002;DHT22;2015;48.670;9.060;2022-12-22T15:11:45;9.20;99.90
4002;DHT22;2015;48.670;9.060;2022-12-22T15:14:21;9.20;99.90
4002;DHT22;2015;48.670;9.060;2022-12-22T15:16:57;9.10;99.90
4002;DHT22;2015;48.670;9.060;2022-12-22T15:19:34;9.10;99.90
4002;DHT22;2015;48.670;9.060;2022-12-22T15:22:07;9.20;99.90
4002;DHT22;2015;48.670;9.060;2022-12-22T15:24:38;9.20;99.90
4002;DHT22;2015;48.670;9.060;2022-12-22T15:27:11;9.20;99.90
4002;DHT22;2015;48.670;9.060;2022-12-22T15:29:43;9.20;99.90
4002;DHT22;2015;48.670;9.060;2022-12-22T15:32:14;9.10;99.90
4002;DHT22;2015;48.670;9.060;2022-12-22T15:34:46;9.10;99.90
4002;DHT22;2015;48.670;9.060;2022-12-22T15:37:18;9.10;99.90
4002;DHT22;2015;48.670;9.060;2022-12-22T15:39:50;9.00;99.90
4002;DHT22;2015;48.670;9.060;2022-12-22T15:42:21;9.00;99.90
4002;DHT22;2015;48.670;9.060;2022-12-22T15:44:53;8.90;99.90
4002;DHT22;2015;48.670;9.060;2022-12-22T15:47:25;8.90;99.90
4002;DHT22;2015;48.670;9.060;2022-12-22T15:49:57;8.90;99.90
4002;DHT22;2015;48.670;9.060;2022-12-22T15:52:30;8.90;99.90
4002;DHT22;2015;48.670;9.060;2022-12-22T15:55:02;8.90;99.90
4002;DHT22;2015;48.670;9.060;2022-12-22T15:57:34;8.90;99.90
4002;DHT22;2015;48.670;9.060;2022-12-22T16:00:08;8.90;99.90
4002;DHT22;2015;48.670;9.060;2022-12-22T16:02:40;8.90;99.90
4002;DHT22;2015;48.670;9.060;2022-12-22T16:05:13;9.00;99.90
4002;DHT22;2015;48.670;9.060;2022-12-22T16:07:45;9.00;99.90
4002;DHT22;2015;48.670;9.060;2022-12-22T16:10:23;9.00;99.90
4002;DHT22;2015;48.670;9.060;2022-12-22T16:12:58;9.00;99.90
4002;DHT22;2015;48.670;9.060;2022-12-22T16:15:32;8.90;99.90
4002;DHT22;2015;48.670;9.060;2022-12-22T16:18:05;9.00;99.90
4002;DHT22;2015;48.670;9.060;2022-12-22T16:20:39;8.90;99.90
4002;DHT22;2015;48.670;9.060;2022-12-22T16:23:15;8.90;99.90
4002;DHT22;2015;48.670;9.060;2022-12-22T16:25:47;8.90;99.90
4002;DHT22;2015;48.670;9.060;2022-12-22T16:28:21;8.90;99.90
4002;DHT22;2015;48.670;9.060;2022-12-22T16:30:54;8.90;99.90
4002;DHT22;2015;48.670;9.060;2022-12-22T16:33:26;8.90;99.90
4002;DHT22;2015;48.670;9.060;2022-12-22T16:35:57;8.80;99.90
4002;DHT22;2015;48.670;9.060;2022-12-22T16:38:29;8.80;99.90
4002;DHT22;2015;48.670;9.060;2022-12-22T16:41:01;8.80;99.90
4002;DHT22;2015;48.670;9.060;2022-12-22T16:43:36;8.80;99.90
4002;DHT22;2015;48.670;9.060;2022-12-22T16:46:27;8.80;99.90
4002;DHT22;2015;48.670;9.060;2022-12-22T16:48:59;8.80;99.90
4002;DHT22;2015;48.670;9.060;2022-12-22T16:51:32;8.80;99.90
4002;DHT22;2015;48.670;9.060;2022-12-22T16:54:05;8.80;99.90
4002;DHT22;2015;48.670;9.060;2022-12-22T16:56:36;8.80;99.90
4002;DHT22;2015;48.670;9.060;2022-12-22T16:59:09;8.80;99.90
4002;DHT22;2015;48.670;9.060;2022-12-22T17:01:49;8.80;99.90
4002;DHT22;2015;48.670;9.060;2022-12-22T17:04:31;8.90;99.90
4002;DHT22;2015;48.670;9.060;2022-12-22T17:07:05;8.90;99.90
4002;DHT22;2015;48.670;9.060;2022-12-22T17:09:58;8.90;99.90
4002;DHT22;2015;48.670;9.060;2022-12-22T17:12:33;8.90;99.90
4002;DHT22;2015;48.670;9.060;2022-12-22T17:15:05;8.90;99.90
4002;DHT22;2015;48.670;9.060;2022-12-22T17:17:37;8.90;99.90
4002;DHT22;2015;48.670;9.060;2022-12-22T17:20:18;8.90;99.90
4002;DHT22;2015;48.670;9.060;2022-12-22T17:22:58;8.90;99.90
4002;DHT22;2015;48.670;9.060;2022-12-22T17:25:30;8.90;99.90
4002;DHT22;2015;48.670;9.060;2022-12-22T17:28:02;8.80;99.90
4002;DHT22;2015;48.670;9.060;2022-12-22T17:30:34;8.70;99.90
4002;DHT22;2015;48.670;9.060;2022-12-22T17:33:15;8.60;99.90
4002;DHT22;2015;48.670;9.060;2022-12-22T17:35:47;8.40;99.90
4002;DHT22;2015;48.670;9.060;2022-12-22T17:38:20;8.30;99.90
4002;DHT22;2015;48.670;9.060;2022-12-22T17:40:52;8.30;99.90
4002;DHT22;2015;48.670;9.060;2022-12-22T17:43:24;8.20;99.90
4002;DHT22;2015;48.670;9.060;2022-12-22T17:45:56;8.20;99.90
4002;DHT22;2015;48.670;9.060;2022-12-22T17:48:28;8.20;99.90
4002;DHT22;2015;48.670;9.060;2022-12-22T17:51:00;8.10;99.90
4002;DHT22;2015;48.670;9.060;2022-12-22T17:53:31;8.10;99.90
4002;DHT22;2015;48.670;9.060;2022-12-22T17:56:15;8.10;99.90
4002;DHT22;2015;48.670;9.060;2022-12-22T17:58:47;8.10;99.90
4002;DHT22;2015;48.670;9.060;2022-12-22T18:01:29;8.10;99.90
4002;DHT22;2015;48.670;9.060;2022-12-22T18:04:02;8.10;99.90
4002;DHT22;2015;48.670;9.060;2022-12-22T18:06:36;8.30;99.90
4002;DHT22;2015;48.670;9.060;2022-12-22T18:09:18;8.30;99.90
4002;DHT22;2015;48.670;9.060;2022-12-22T18:11:52;8.20;99.90
4002;DHT22;2015;48.670;9.060;2022-12-22T18:14:24;8.30;99.90
4002;DHT22;2015;48.670;9.060;2022-12-22T18:16:56;8.20;99.90
4002;DHT22;2015;48.670;9.060;2022-12-22T18:19:27;8.20;99.90
4002;DHT22;2015;48.670;9.060;2022-12-22T18:21:59;8.20;99.90
4002;DHT22;2015;48.670;9.060;2022-12-22T18:24:31;8.20;99.90
4002;DHT22;2015;48.670;9.060;2022-12-22T18:27:03;8.10;99.90
4002;DHT22;2015;48.670;9.060;2022-12-22T18:29:35;8.00;99.90
4002;DHT22;2015;48.670;9.060;2022-12-22T18:32:07;7.90;99.90
4002;DHT22;2015;48.670;9.060;2022-12-22T18:34:39;7.90;99.90
4002;DHT22;2015;48.670;9.060;2022-12-22T18:37:14;7.90;99.90
4002;DHT22;2015;48.670;9.060;2022-12-22T18:39:46;7.90;99.90
4002;DHT22;2015;48.670;9.060;2022-12-22T18:42:21;7.80;99.90
4002;DHT22;2015;48.670;9.060;2022-12-22T18:44:53;7.80;99.90
4002;DHT22;2015;48.670;9.060;2022-12-22T18:47:25;7.80;99.90
4002;DHT22;2015;48.670;9.060;2022-12-22T18:49:56;7.90;99.90
4002;DHT22;2015;48.670;9.060;2022-12-22T18:52:33;7.90;99.90
4002;DHT22;2015;48.670;9.060;2022-12-22T18:55:07;7.80;99.90
4002;DHT22;2015;48.670;9.060;2022-12-22T18:57:40;7.80;99.90
4002;DHT22;2015;48.670;9.060;2022-12-22T19:00:18;7.90;99.90
4002;DHT22;2015;48.670;9.060;2022-12-22T19:02:52;8.10;99.90
4002;DHT22;2015;48.670;9.060;2022-12-22T19:05:30;8.10;99.90
4002;DHT22;2015;48.670;9.060;2022-12-22T19:08:03;8.20;99.90
4002;DHT22;2015;48.670;9.060;2022-12-22T19:10:38;8.10;99.90
4002;DHT22;2015;48.670;9.060;2022-12-22T19:15:52;8.10;99.90
4002;DHT22;2015;48.670;9.060;2022-12-22T19:18:25;8.10;99.90
4002;DHT22;2015;48.670;9.060;2022-12-22T19:20:58;8.10;99.90
4002;DHT22;2015;48.670;9.060;2022-12-22T19:23:30;8.20;99.90
4002;DHT22;2015;48.670;9.060;2022-12-22T19:26:02;8.20;99.90
4002;DHT22;2015;48.670;9.060;2022-12-22T19:28:41;8.20;99.90
4002;DHT22;2015;48.670;9.060;2022-12-22T19:31:23;8.30;99.90
4002;DHT22;2015;48.670;9.060;2022-12-22T19:33:58;8.30;99.90